createdAt,value
2018-08-18T00:00:06.356Z,9.656064
2018-08-18T00:00:18.804Z,9.656064
2018-08-18T00:00:31.231Z,9.656064
2018-08-18T00:00:43.646Z,9.656064
2018-08-18T00:00:56.079Z,9.656064
2018-08-18T00:01:08.500Z,11.265408
2018-08-18T00:01:20.935Z,11.265408
2018-08-18T00:01:33.363Z,11.265408
2018-08-18T00:01:45.786Z,11.265408
2018-08-18T00:01:58.202Z,11.265408
2018-08-18T00:02:10.614Z,12.874752
2018-08-18T00:02:23.040Z,12.874752
2018-08-18T00:02:35.640Z,12.874752
2018-08-18T00:02:48.069Z,12.874752
2018-08-18T00:03:00.536Z,12.874752
2018-08-18T00:03:12.962Z,9.656064
2018-08-18T00:03:25.382Z,9.656064
2018-08-18T00:03:37.806Z,11.265408
2018-08-18T00:03:50.214Z,11.265408
2018-08-18T00:04:02.631Z,11.265408
2018-08-18T00:04:15.042Z,9.656064
2018-08-18T00:04:27.459Z,12.874752
2018-08-18T00:04:39.920Z,12.874752
2018-08-18T00:04:52.339Z,12.874752
2018-08-18T00:05:04.773Z,8.04672
2018-08-18T00:05:17.195Z,8.04672
2018-08-18T00:05:29.602Z,8.04672
2018-08-18T00:05:42.018Z,8.04672
2018-08-18T00:05:54.440Z,8.04672
2018-08-18T00:06:06.871Z,8.04672
2018-08-18T00:06:19.297Z,9.656064
2018-08-18T00:06:31.706Z,9.656064
2018-08-18T00:06:44.129Z,9.656064
2018-08-18T00:06:56.541Z,9.656064
2018-08-18T00:07:08.985Z,9.656064
2018-08-18T00:07:21.399Z,9.656064
2018-08-18T00:07:33.864Z,9.656064
2018-08-18T00:07:46.376Z,9.656064
2018-08-18T00:07:58.839Z,9.656064
2018-08-18T00:08:11.261Z,8.04672
2018-08-18T00:08:23.694Z,8.04672
2018-08-18T00:08:36.222Z,8.04672
2018-08-18T00:08:48.653Z,9.656064
2018-08-18T00:09:01.076Z,9.656064
2018-08-18T00:09:13.493Z,8.04672
2018-08-18T00:09:25.916Z,11.265408
2018-08-18T00:09:38.336Z,11.265408
2018-08-18T00:09:50.764Z,11.265408
2018-08-18T00:10:03.182Z,11.265408
2018-08-18T00:10:15.628Z,4.828032
2018-08-18T00:10:28.103Z,8.04672
2018-08-18T00:10:40.657Z,8.04672
2018-08-18T00:10:53.082Z,8.04672
2018-08-18T00:11:05.557Z,3.218688
2018-08-18T00:11:18.008Z,6.437376
2018-08-18T00:11:30.425Z,9.656064
2018-08-18T00:11:42.869Z,9.656064
2018-08-18T00:11:55.292Z,9.656064
2018-08-18T00:12:07.723Z,8.04672
2018-08-18T00:12:20.156Z,8.04672
2018-08-18T00:12:32.551Z,8.04672
2018-08-18T00:12:44.967Z,8.04672
2018-08-18T00:12:57.408Z,8.04672
2018-08-18T00:13:09.833Z,11.265408
2018-08-18T00:13:22.256Z,11.265408
2018-08-18T00:13:35.215Z,11.265408
2018-08-18T00:13:47.678Z,11.265408
2018-08-18T00:14:00.097Z,11.265408
2018-08-18T00:14:12.526Z,9.656064
2018-08-18T00:14:24.962Z,9.656064
2018-08-18T00:14:37.381Z,9.656064
2018-08-18T00:14:49.819Z,9.656064
2018-08-18T00:15:02.254Z,9.656064
2018-08-18T00:15:14.670Z,6.437376
2018-08-18T00:15:27.115Z,9.656064
2018-08-18T00:15:39.542Z,9.656064
2018-08-18T00:15:51.964Z,11.265408
2018-08-18T00:16:04.378Z,11.265408
2018-08-18T00:16:16.800Z,11.265408
2018-08-18T00:16:29.217Z,11.265408
2018-08-18T00:16:41.813Z,11.265408
2018-08-18T00:16:54.227Z,11.265408
2018-08-18T00:17:06.661Z,9.656064
2018-08-18T00:17:19.101Z,9.656064
2018-08-18T00:17:31.556Z,9.656064
2018-08-18T00:17:44.114Z,9.656064
2018-08-18T00:17:56.672Z,12.874752
2018-08-18T00:18:09.090Z,8.04672
2018-08-18T00:18:21.518Z,9.656064
2018-08-18T00:18:33.991Z,12.874752
2018-08-18T00:18:46.421Z,12.874752
2018-08-18T00:18:58.845Z,12.874752
2018-08-18T00:19:11.288Z,8.04672
2018-08-18T00:19:23.696Z,16.09344
2018-08-18T00:19:36.111Z,16.09344
2018-08-18T00:19:48.530Z,16.09344
2018-08-18T00:20:00.933Z,16.09344
2018-08-18T00:20:13.365Z,9.656064
2018-08-18T00:20:25.851Z,9.656064
2018-08-18T00:20:38.270Z,9.656064
2018-08-18T00:20:50.787Z,9.656064
2018-08-18T00:21:03.202Z,9.656064
2018-08-18T00:21:15.645Z,6.437376
2018-08-18T00:21:28.094Z,9.656064
2018-08-18T00:21:40.519Z,9.656064
2018-08-18T00:21:52.943Z,9.656064
2018-08-18T00:22:05.373Z,8.04672
2018-08-18T00:22:18.000Z,9.656064
2018-08-18T00:22:30.411Z,9.656064
2018-08-18T00:22:42.823Z,9.656064
2018-08-18T00:22:55.229Z,9.656064
2018-08-18T00:23:07.653Z,8.04672
2018-08-18T00:23:20.058Z,8.04672
2018-08-18T00:23:32.507Z,8.04672
2018-08-18T00:23:44.930Z,8.04672
2018-08-18T00:23:57.348Z,8.04672
2018-08-18T00:24:09.752Z,3.218688
2018-08-18T00:24:22.161Z,3.218688
2018-08-18T00:24:34.566Z,3.218688
2018-08-18T00:24:47.044Z,3.218688
2018-08-18T00:24:59.472Z,3.218688
2018-08-18T00:25:12.066Z,8.04672
2018-08-18T00:25:24.526Z,8.04672
2018-08-18T00:25:36.951Z,8.04672
2018-08-18T00:25:49.361Z,11.265408
2018-08-18T00:26:01.760Z,12.874752
2018-08-18T00:26:14.156Z,16.09344
2018-08-18T00:26:26.573Z,16.09344
2018-08-18T00:26:39.129Z,16.09344
2018-08-18T00:26:51.559Z,16.09344
2018-08-18T00:27:03.986Z,16.09344
2018-08-18T00:27:16.420Z,9.656064
2018-08-18T00:27:29.005Z,9.656064
2018-08-18T00:27:41.412Z,12.874752
2018-08-18T00:27:53.843Z,12.874752
2018-08-18T00:28:06.253Z,8.04672
2018-08-18T00:28:18.654Z,11.265408
2018-08-18T00:28:31.058Z,11.265408
2018-08-18T00:28:43.452Z,11.265408
2018-08-18T00:28:55.862Z,11.265408
2018-08-18T00:29:08.281Z,3.218688
2018-08-18T00:29:20.972Z,8.04672
2018-08-18T00:29:33.428Z,9.656064
2018-08-18T00:29:45.848Z,9.656064
2018-08-18T00:29:58.258Z,9.656064
2018-08-18T00:30:10.660Z,6.437376
2018-08-18T00:30:23.131Z,6.437376
2018-08-18T00:30:35.544Z,8.04672
2018-08-18T00:30:47.978Z,8.04672
2018-08-18T00:31:00.393Z,8.04672
2018-08-18T00:31:12.797Z,6.437376
2018-08-18T00:31:25.194Z,6.437376
2018-08-18T00:31:37.601Z,6.437376
2018-08-18T00:31:50.022Z,6.437376
2018-08-18T00:32:02.458Z,6.437376
2018-08-18T00:32:14.883Z,9.656064
2018-08-18T00:32:27.295Z,9.656064
2018-08-18T00:32:39.689Z,9.656064
2018-08-18T00:32:52.234Z,9.656064
2018-08-18T00:33:04.664Z,3.218688
2018-08-18T00:33:17.090Z,3.218688
2018-08-18T00:33:29.527Z,3.218688
2018-08-18T00:33:41.953Z,8.04672
2018-08-18T00:33:54.338Z,8.04672
2018-08-18T00:34:06.749Z,3.218688
2018-08-18T00:34:19.906Z,3.218688
2018-08-18T00:34:33.056Z,3.218688
2018-08-18T00:34:45.490Z,3.218688
2018-08-18T00:34:57.923Z,3.218688
2018-08-18T00:35:10.353Z,8.04672
2018-08-18T00:35:22.963Z,8.04672
2018-08-18T00:35:35.380Z,8.04672
2018-08-18T00:35:47.841Z,8.04672
2018-08-18T00:36:00.309Z,8.04672
2018-08-18T00:36:12.730Z,6.437376
2018-08-18T00:36:25.204Z,6.437376
2018-08-18T00:36:37.627Z,6.437376
2018-08-18T00:36:50.090Z,8.04672
2018-08-18T00:37:02.643Z,8.04672
2018-08-18T00:37:15.048Z,6.437376
2018-08-18T00:37:27.502Z,6.437376
2018-08-18T00:37:39.974Z,6.437376
2018-08-18T00:37:52.423Z,6.437376
2018-08-18T00:38:04.852Z,6.437376
2018-08-18T00:38:17.270Z,6.437376
2018-08-18T00:38:29.673Z,6.437376
2018-08-18T00:38:42.218Z,6.437376
2018-08-18T00:38:54.624Z,6.437376
2018-08-18T00:39:07.045Z,3.218688
2018-08-18T00:39:19.466Z,6.437376
2018-08-18T00:39:31.885Z,8.04672
2018-08-18T00:39:44.323Z,9.656064
2018-08-18T00:39:56.802Z,9.656064
2018-08-18T00:40:09.415Z,1.609344
2018-08-18T00:40:21.841Z,1.609344
2018-08-18T00:40:34.331Z,1.609344
2018-08-18T00:40:46.766Z,1.609344
2018-08-18T00:40:59.199Z,1.609344
2018-08-18T00:41:11.625Z,0
2018-08-18T00:41:24.083Z,0
2018-08-18T00:41:36.495Z,1.609344
2018-08-18T00:41:48.922Z,1.609344
2018-08-18T00:42:01.350Z,1.609344
2018-08-18T00:42:13.768Z,1.609344
2018-08-18T00:42:26.209Z,1.609344
2018-08-18T00:42:38.659Z,3.218688
2018-08-18T00:42:51.114Z,3.218688
2018-08-18T00:43:03.575Z,3.218688
2018-08-18T00:43:16.010Z,6.437376
2018-08-18T00:43:28.494Z,6.437376
2018-08-18T00:43:40.900Z,8.04672
2018-08-18T00:43:53.312Z,8.04672
2018-08-18T00:44:05.727Z,6.437376
2018-08-18T00:44:18.147Z,8.04672
2018-08-18T00:44:30.635Z,8.04672
2018-08-18T00:44:43.060Z,8.04672
2018-08-18T00:44:55.505Z,8.04672
2018-08-18T00:45:07.925Z,3.218688
2018-08-18T00:45:20.377Z,3.218688
2018-08-18T00:45:32.839Z,4.828032
2018-08-18T00:45:45.258Z,6.437376
2018-08-18T00:45:57.682Z,6.437376
2018-08-18T00:46:10.121Z,1.609344
2018-08-18T00:46:22.539Z,1.609344
2018-08-18T00:46:34.948Z,1.609344
2018-08-18T00:46:47.369Z,8.04672
2018-08-18T00:46:59.800Z,8.04672
2018-08-18T00:47:12.239Z,4.828032
2018-08-18T00:47:24.665Z,6.437376
2018-08-18T00:47:37.092Z,8.04672
2018-08-18T00:47:49.565Z,8.04672
2018-08-18T00:48:01.980Z,8.04672
2018-08-18T00:48:14.396Z,6.437376
2018-08-18T00:48:26.820Z,6.437376
2018-08-18T00:48:39.220Z,6.437376
2018-08-18T00:48:51.637Z,6.437376
2018-08-18T00:49:04.141Z,6.437376
2018-08-18T00:49:16.564Z,3.218688
2018-08-18T00:49:29.001Z,3.218688
2018-08-18T00:49:41.424Z,3.218688
2018-08-18T00:49:53.843Z,3.218688
2018-08-18T00:50:06.265Z,3.218688
2018-08-18T00:50:18.690Z,6.437376
2018-08-18T00:50:31.108Z,6.437376
2018-08-18T00:50:43.546Z,6.437376
2018-08-18T00:50:55.956Z,8.04672
2018-08-18T00:51:08.449Z,6.437376
2018-08-18T00:51:20.869Z,6.437376
2018-08-18T00:51:33.273Z,6.437376
2018-08-18T00:51:45.700Z,6.437376
2018-08-18T00:51:58.287Z,6.437376
2018-08-18T00:52:10.701Z,1.609344
2018-08-18T00:52:23.120Z,3.218688
2018-08-18T00:52:35.569Z,6.437376
2018-08-18T00:52:48.002Z,6.437376
2018-08-18T00:53:00.414Z,6.437376
2018-08-18T00:53:12.862Z,6.437376
2018-08-18T00:53:25.300Z,6.437376
2018-08-18T00:53:37.723Z,9.656064
2018-08-18T00:53:50.129Z,9.656064
2018-08-18T00:54:02.643Z,9.656064
2018-08-18T00:54:15.044Z,6.437376
2018-08-18T00:54:27.456Z,8.04672
2018-08-18T00:54:39.867Z,11.265408
2018-08-18T00:54:52.275Z,11.265408
2018-08-18T00:55:04.685Z,4.828032
2018-08-18T00:55:17.113Z,6.437376
2018-08-18T00:55:29.546Z,6.437376
2018-08-18T00:55:41.975Z,6.437376
2018-08-18T00:55:54.397Z,8.04672
2018-08-18T00:56:06.809Z,6.437376
2018-08-18T00:56:19.347Z,6.437376
2018-08-18T00:56:31.772Z,6.437376
2018-08-18T00:56:44.204Z,8.04672
2018-08-18T00:56:56.609Z,8.04672
2018-08-18T00:57:09.027Z,11.265408
2018-08-18T00:57:21.433Z,11.265408
2018-08-18T00:57:33.869Z,11.265408
2018-08-18T00:57:46.314Z,11.265408
2018-08-18T00:57:58.731Z,11.265408
2018-08-18T00:58:11.160Z,6.437376
2018-08-18T00:58:23.565Z,6.437376
2018-08-18T00:58:35.994Z,6.437376
2018-08-18T00:58:48.424Z,6.437376
2018-08-18T00:59:00.870Z,6.437376
2018-08-18T00:59:13.542Z,3.218688
2018-08-18T00:59:25.954Z,3.218688
2018-08-18T00:59:38.361Z,3.218688
2018-08-18T00:59:50.775Z,3.218688
2018-08-18T01:00:03.199Z,3.218688
2018-08-18T01:00:15.653Z,3.218688
2018-08-18T01:00:28.106Z,3.218688
2018-08-18T01:00:40.567Z,6.437376
2018-08-18T01:00:53.010Z,6.437376
2018-08-18T01:01:05.431Z,1.609344
2018-08-18T01:01:17.873Z,3.218688
2018-08-18T01:01:30.297Z,3.218688
2018-08-18T01:01:42.724Z,3.218688
2018-08-18T01:01:55.156Z,3.218688
2018-08-18T01:02:07.591Z,1.609344
2018-08-18T01:02:20.030Z,1.609344
2018-08-18T01:02:32.492Z,3.218688
2018-08-18T01:02:45.086Z,3.218688
2018-08-18T01:02:57.568Z,3.218688
2018-08-18T01:03:09.989Z,3.218688
2018-08-18T01:03:22.479Z,3.218688
2018-08-18T01:03:34.924Z,3.218688
2018-08-18T01:03:47.391Z,3.218688
2018-08-18T01:03:59.822Z,3.218688
2018-08-18T01:04:12.243Z,1.609344
2018-08-18T01:04:24.657Z,3.218688
2018-08-18T01:04:37.066Z,3.218688
2018-08-18T01:04:49.473Z,8.04672
2018-08-18T01:05:01.910Z,8.04672
2018-08-18T01:05:14.342Z,6.437376
2018-08-18T01:05:26.767Z,6.437376
2018-08-18T01:05:39.182Z,6.437376
2018-08-18T01:05:51.585Z,8.04672
2018-08-18T01:06:04.001Z,9.656064
2018-08-18T01:06:16.426Z,8.04672
2018-08-18T01:06:28.858Z,8.04672
2018-08-18T01:06:41.283Z,8.04672
2018-08-18T01:06:53.714Z,8.04672
2018-08-18T01:07:06.133Z,3.218688
2018-08-18T01:07:18.539Z,3.218688
2018-08-18T01:07:30.963Z,3.218688
2018-08-18T01:07:43.405Z,6.437376
2018-08-18T01:07:55.816Z,6.437376
2018-08-18T01:08:08.229Z,4.828032
2018-08-18T01:08:20.662Z,6.437376
2018-08-18T01:08:33.177Z,6.437376
2018-08-18T01:08:45.606Z,9.656064
2018-08-18T01:08:58.012Z,9.656064
2018-08-18T01:09:10.440Z,6.437376
2018-08-18T01:09:22.857Z,8.04672
2018-08-18T01:09:35.276Z,8.04672
2018-08-18T01:09:47.736Z,8.04672
2018-08-18T01:10:00.183Z,8.04672
2018-08-18T01:10:12.652Z,6.437376
2018-08-18T01:10:25.085Z,6.437376
2018-08-18T01:10:37.510Z,8.04672
2018-08-18T01:10:50.205Z,8.04672
2018-08-18T01:11:04.095Z,9.656064
2018-08-18T01:11:18.097Z,9.656064
2018-08-18T01:11:32.382Z,9.656064
2018-08-18T01:11:47.153Z,9.656064
2018-08-18T01:12:01.578Z,9.656064
2018-08-18T01:12:16.187Z,8.04672
2018-08-18T01:12:30.401Z,8.04672
2018-08-18T01:12:45.403Z,8.04672
2018-08-18T01:12:59.073Z,8.04672
2018-08-18T01:13:12.499Z,3.218688
2018-08-18T01:13:25.610Z,3.218688
2018-08-18T01:13:38.522Z,3.218688
2018-08-18T01:13:52.911Z,3.218688
2018-08-18T01:14:06.792Z,0
2018-08-18T01:14:21.027Z,4.828032
2018-08-18T01:14:35.480Z,6.437376
2018-08-18T01:14:48.893Z,6.437376
2018-08-18T01:15:02.887Z,6.437376
2018-08-18T01:15:15.607Z,4.828032
2018-08-18T01:15:28.093Z,6.437376
2018-08-18T01:15:41.239Z,6.437376
2018-08-18T01:15:54.624Z,6.437376
2018-08-18T01:16:07.071Z,4.828032
2018-08-18T01:16:19.523Z,6.437376
2018-08-18T01:16:31.965Z,6.437376
2018-08-18T01:16:45.247Z,6.437376
2018-08-18T01:16:57.687Z,6.437376
2018-08-18T01:17:10.119Z,4.828032
2018-08-18T01:17:22.544Z,4.828032
2018-08-18T01:17:34.956Z,4.828032
2018-08-18T01:17:47.656Z,4.828032
2018-08-18T01:18:00.110Z,4.828032
2018-08-18T01:18:12.586Z,3.218688
2018-08-18T01:18:25.009Z,6.437376
2018-08-18T01:18:37.468Z,6.437376
2018-08-18T01:18:49.929Z,6.437376
2018-08-18T01:19:02.360Z,6.437376
2018-08-18T01:19:14.780Z,9.656064
2018-08-18T01:19:27.209Z,9.656064
2018-08-18T01:19:39.609Z,9.656064
2018-08-18T01:19:52.009Z,9.656064
2018-08-18T01:20:04.441Z,3.218688
2018-08-18T01:20:16.860Z,6.437376
2018-08-18T01:20:29.268Z,6.437376
2018-08-18T01:20:41.914Z,6.437376
2018-08-18T01:20:54.340Z,6.437376
2018-08-18T01:21:06.755Z,3.218688
2018-08-18T01:21:19.358Z,3.218688
2018-08-18T01:21:32.670Z,4.828032
2018-08-18T01:21:45.460Z,6.437376
2018-08-18T01:21:57.863Z,6.437376
2018-08-18T01:22:10.281Z,3.218688
2018-08-18T01:22:22.766Z,3.218688
2018-08-18T01:22:35.186Z,4.828032
2018-08-18T01:22:47.625Z,4.828032
2018-08-18T01:23:00.064Z,4.828032
2018-08-18T01:23:12.523Z,3.218688
2018-08-18T01:23:24.966Z,3.218688
2018-08-18T01:23:37.421Z,4.828032
2018-08-18T01:23:49.838Z,6.437376
2018-08-18T01:24:02.272Z,6.437376
2018-08-18T01:24:14.708Z,3.218688
2018-08-18T01:24:27.165Z,3.218688
2018-08-18T01:24:39.597Z,3.218688
2018-08-18T01:24:52.061Z,3.218688
2018-08-18T01:25:04.489Z,0
2018-08-18T01:25:16.909Z,1.609344
2018-08-18T01:25:29.311Z,1.609344
2018-08-18T01:25:41.800Z,1.609344
2018-08-18T01:25:54.247Z,3.218688
2018-08-18T01:26:06.717Z,3.218688
2018-08-18T01:26:19.133Z,3.218688
2018-08-18T01:26:31.563Z,3.218688
2018-08-18T01:26:44.061Z,4.828032
2018-08-18T01:26:56.512Z,4.828032
2018-08-18T01:27:09.808Z,4.828032
2018-08-18T01:27:22.890Z,4.828032
2018-08-18T01:27:35.333Z,4.828032
2018-08-18T01:27:47.801Z,4.828032
2018-08-18T01:28:00.215Z,4.828032
2018-08-18T01:28:12.631Z,1.609344
2018-08-18T01:28:25.051Z,1.609344
2018-08-18T01:28:37.496Z,1.609344
2018-08-18T01:28:49.916Z,1.609344
2018-08-18T01:29:02.325Z,1.609344
2018-08-18T01:29:14.748Z,1.609344
2018-08-18T01:29:27.166Z,1.609344
2018-08-18T01:29:39.599Z,1.609344
2018-08-18T01:29:52.031Z,1.609344
2018-08-18T01:30:04.456Z,1.609344
2018-08-18T01:30:16.882Z,1.609344
2018-08-18T01:30:29.339Z,1.609344
2018-08-18T01:30:41.770Z,1.609344
2018-08-18T01:30:54.210Z,1.609344
2018-08-18T01:31:06.644Z,1.609344
2018-08-18T01:31:19.105Z,1.609344
2018-08-18T01:31:31.550Z,1.609344
2018-08-18T01:31:44.011Z,4.828032
2018-08-18T01:31:56.442Z,8.04672
2018-08-18T01:32:08.841Z,4.828032
2018-08-18T01:32:21.252Z,4.828032
2018-08-18T01:32:33.835Z,4.828032
2018-08-18T01:32:46.348Z,6.437376
2018-08-18T01:32:58.754Z,6.437376
2018-08-18T01:33:11.172Z,3.218688
2018-08-18T01:33:23.611Z,8.04672
2018-08-18T01:33:36.023Z,8.04672
2018-08-18T01:33:48.450Z,8.04672
2018-08-18T01:34:00.883Z,8.04672
2018-08-18T01:34:13.287Z,4.828032
2018-08-18T01:34:25.688Z,6.437376
2018-08-18T01:34:38.112Z,6.437376
2018-08-18T01:34:50.553Z,6.437376
2018-08-18T01:35:02.980Z,6.437376
2018-08-18T01:35:15.392Z,3.218688
2018-08-18T01:35:27.808Z,6.437376
2018-08-18T01:35:40.214Z,8.04672
2018-08-18T01:35:52.619Z,9.656064
2018-08-18T01:36:05.032Z,6.437376
2018-08-18T01:36:17.461Z,9.656064
2018-08-18T01:36:29.894Z,9.656064
2018-08-18T01:36:42.324Z,9.656064
2018-08-18T01:36:54.740Z,9.656064
2018-08-18T01:37:07.143Z,6.437376
2018-08-18T01:37:19.547Z,8.04672
2018-08-18T01:37:32.109Z,9.656064
2018-08-18T01:37:44.520Z,11.265408
2018-08-18T01:37:56.949Z,12.874752
2018-08-18T01:38:09.358Z,11.265408
2018-08-18T01:38:21.798Z,11.265408
2018-08-18T01:38:34.235Z,11.265408
2018-08-18T01:38:46.704Z,11.265408
2018-08-18T01:38:59.149Z,11.265408
2018-08-18T01:39:11.664Z,4.828032
2018-08-18T01:39:24.222Z,8.04672
2018-08-18T01:39:36.668Z,9.656064
2018-08-18T01:39:49.103Z,9.656064
2018-08-18T01:40:01.531Z,9.656064
2018-08-18T01:40:14.057Z,8.04672
2018-08-18T01:40:26.490Z,8.04672
2018-08-18T01:40:38.922Z,9.656064
2018-08-18T01:40:51.332Z,9.656064
2018-08-18T01:41:03.757Z,9.656064
2018-08-18T01:41:16.181Z,8.04672
2018-08-18T01:41:28.615Z,8.04672
2018-08-18T01:41:41.081Z,8.04672
2018-08-18T01:41:53.529Z,8.04672
2018-08-18T01:42:05.936Z,1.609344
2018-08-18T01:42:18.348Z,4.828032
2018-08-18T01:42:30.767Z,6.437376
2018-08-18T01:42:43.202Z,6.437376
2018-08-18T01:42:55.622Z,6.437376
2018-08-18T01:43:08.039Z,6.437376
2018-08-18T01:43:20.443Z,6.437376
2018-08-18T01:43:32.869Z,8.04672
2018-08-18T01:43:45.570Z,8.04672
2018-08-18T01:43:59.176Z,8.04672
2018-08-18T01:44:11.600Z,9.656064
2018-08-18T01:44:24.095Z,9.656064
2018-08-18T01:44:36.506Z,9.656064
2018-08-18T01:44:48.951Z,9.656064
2018-08-18T01:45:01.372Z,9.656064
2018-08-18T01:45:13.851Z,8.04672
2018-08-18T01:45:26.271Z,8.04672
2018-08-18T01:45:38.712Z,8.04672
2018-08-18T01:45:51.308Z,8.04672
2018-08-18T01:46:03.725Z,8.04672
2018-08-18T01:46:16.130Z,1.609344
2018-08-18T01:46:28.552Z,3.218688
2018-08-18T01:46:40.956Z,6.437376
2018-08-18T01:46:53.373Z,6.437376
2018-08-18T01:47:05.799Z,8.04672
2018-08-18T01:47:18.219Z,8.04672
2018-08-18T01:47:30.622Z,8.04672
2018-08-18T01:47:43.040Z,8.04672
2018-08-18T01:47:55.439Z,8.04672
2018-08-18T01:48:07.862Z,8.04672
2018-08-18T01:48:20.273Z,9.656064
2018-08-18T01:48:32.679Z,9.656064
2018-08-18T01:48:45.088Z,9.656064
2018-08-18T01:48:57.506Z,9.656064
2018-08-18T01:49:10.079Z,3.218688
2018-08-18T01:49:22.490Z,6.437376
2018-08-18T01:49:34.920Z,6.437376
2018-08-18T01:49:47.325Z,6.437376
2018-08-18T01:49:59.781Z,6.437376
2018-08-18T01:50:12.251Z,8.04672
2018-08-18T01:50:24.665Z,8.04672
2018-08-18T01:50:37.137Z,8.04672
2018-08-18T01:50:49.554Z,8.04672
2018-08-18T01:51:01.976Z,8.04672
2018-08-18T01:51:14.391Z,3.218688
2018-08-18T01:51:26.800Z,3.218688
2018-08-18T01:51:39.193Z,3.218688
2018-08-18T01:51:51.696Z,6.437376
2018-08-18T01:52:04.317Z,6.437376
2018-08-18T01:52:16.729Z,3.218688
2018-08-18T01:52:29.134Z,8.04672
2018-08-18T01:52:41.536Z,9.656064
2018-08-18T01:52:53.953Z,9.656064
2018-08-18T01:53:06.354Z,4.828032
2018-08-18T01:53:18.751Z,6.437376
2018-08-18T01:53:31.170Z,8.04672
2018-08-18T01:53:43.595Z,9.656064
2018-08-18T01:53:56.016Z,9.656064
2018-08-18T01:54:08.563Z,6.437376
2018-08-18T01:54:20.971Z,6.437376
2018-08-18T01:54:33.372Z,6.437376
2018-08-18T01:54:45.794Z,6.437376
2018-08-18T01:54:58.227Z,6.437376
2018-08-18T01:55:10.675Z,6.437376
2018-08-18T01:55:23.086Z,8.04672
2018-08-18T01:55:35.500Z,8.04672
2018-08-18T01:55:47.908Z,8.04672
2018-08-18T01:56:00.334Z,9.656064
2018-08-18T01:56:12.744Z,9.656064
2018-08-18T01:56:25.180Z,9.656064
2018-08-18T01:56:37.606Z,9.656064
2018-08-18T01:56:50.008Z,9.656064
2018-08-18T01:57:02.456Z,9.656064
2018-08-18T01:57:14.892Z,6.437376
2018-08-18T01:57:27.314Z,6.437376
2018-08-18T01:57:39.733Z,8.04672
2018-08-18T01:57:52.159Z,8.04672
2018-08-18T01:58:04.652Z,8.04672
2018-08-18T01:58:17.060Z,9.656064
2018-08-18T01:58:29.497Z,9.656064
2018-08-18T01:58:41.914Z,9.656064
2018-08-18T01:58:54.332Z,9.656064
2018-08-18T01:59:06.756Z,6.437376
2018-08-18T01:59:19.152Z,6.437376
2018-08-18T01:59:31.560Z,6.437376
2018-08-18T01:59:43.976Z,6.437376
2018-08-18T01:59:56.446Z,6.437376
2018-08-18T02:00:08.883Z,8.04672
2018-08-18T02:00:21.384Z,8.04672
2018-08-18T02:00:33.888Z,8.04672
2018-08-18T02:00:46.328Z,8.04672
2018-08-18T02:00:58.754Z,8.04672
2018-08-18T02:01:11.189Z,8.04672
2018-08-18T02:01:23.622Z,8.04672
2018-08-18T02:01:36.049Z,9.656064
2018-08-18T02:01:48.483Z,9.656064
2018-08-18T02:02:01.167Z,9.656064
2018-08-18T02:02:13.593Z,9.656064
2018-08-18T02:02:26.030Z,9.656064
2018-08-18T02:02:38.661Z,9.656064
2018-08-18T02:02:51.099Z,9.656064
2018-08-18T02:03:03.531Z,9.656064
2018-08-18T02:03:15.970Z,8.04672
2018-08-18T02:03:28.408Z,8.04672
2018-08-18T02:03:40.844Z,8.04672
2018-08-18T02:03:53.258Z,8.04672
2018-08-18T02:04:05.661Z,3.218688
2018-08-18T02:04:18.094Z,3.218688
2018-08-18T02:04:30.509Z,8.04672
2018-08-18T02:04:42.923Z,8.04672
2018-08-18T02:04:55.355Z,8.04672
2018-08-18T02:05:07.778Z,6.437376
2018-08-18T02:05:20.230Z,6.437376
2018-08-18T02:05:32.699Z,8.04672
2018-08-18T02:05:45.120Z,8.04672
2018-08-18T02:05:57.521Z,8.04672
2018-08-18T02:06:09.939Z,3.218688
2018-08-18T02:06:22.364Z,3.218688
2018-08-18T02:06:34.819Z,3.218688
2018-08-18T02:06:47.256Z,3.218688
2018-08-18T02:06:59.735Z,8.04672
2018-08-18T02:07:12.144Z,6.437376
2018-08-18T02:07:24.590Z,6.437376
2018-08-18T02:07:36.988Z,6.437376
2018-08-18T02:07:49.408Z,6.437376
2018-08-18T02:08:01.830Z,6.437376
2018-08-18T02:08:14.275Z,0
2018-08-18T02:08:26.700Z,1.609344
2018-08-18T02:08:39.260Z,3.218688
2018-08-18T02:08:51.653Z,3.218688
2018-08-18T02:09:04.065Z,3.218688
2018-08-18T02:09:16.486Z,1.609344
2018-08-18T02:09:28.958Z,1.609344
2018-08-18T02:09:41.382Z,1.609344
2018-08-18T02:09:53.851Z,1.609344
2018-08-18T02:10:06.278Z,0
2018-08-18T02:10:18.698Z,3.218688
2018-08-18T02:10:31.145Z,3.218688
2018-08-18T02:10:43.567Z,3.218688
2018-08-18T02:10:56.007Z,3.218688
2018-08-18T02:11:08.581Z,3.218688
2018-08-18T02:11:20.989Z,4.828032
2018-08-18T02:11:33.407Z,6.437376
2018-08-18T02:11:45.962Z,8.04672
2018-08-18T02:11:58.378Z,8.04672
2018-08-18T02:12:10.810Z,6.437376
2018-08-18T02:12:23.246Z,6.437376
2018-08-18T02:12:35.678Z,6.437376
2018-08-18T02:12:48.092Z,6.437376
2018-08-18T02:13:00.503Z,6.437376
2018-08-18T02:13:12.967Z,3.218688
2018-08-18T02:13:25.403Z,6.437376
2018-08-18T02:13:37.853Z,6.437376
2018-08-18T02:13:50.275Z,6.437376
2018-08-18T02:14:02.687Z,6.437376
2018-08-18T02:14:15.136Z,8.04672
2018-08-18T02:14:27.534Z,8.04672
2018-08-18T02:14:39.954Z,8.04672
2018-08-18T02:14:52.359Z,8.04672
2018-08-18T02:15:04.796Z,1.609344
2018-08-18T02:15:17.199Z,1.609344
2018-08-18T02:15:29.620Z,3.218688
2018-08-18T02:15:42.082Z,4.828032
2018-08-18T02:15:54.501Z,6.437376
2018-08-18T02:16:06.961Z,6.437376
2018-08-18T02:16:19.483Z,6.437376
2018-08-18T02:16:31.892Z,6.437376
2018-08-18T02:16:44.784Z,6.437376
2018-08-18T02:16:57.218Z,6.437376
2018-08-18T02:17:09.659Z,3.218688
2018-08-18T02:17:22.079Z,8.04672
2018-08-18T02:17:34.514Z,8.04672
2018-08-18T02:17:47.175Z,8.04672
2018-08-18T02:17:59.592Z,8.04672
2018-08-18T02:18:12.020Z,6.437376
2018-08-18T02:18:24.442Z,6.437376
2018-08-18T02:18:36.865Z,6.437376
2018-08-18T02:18:49.285Z,9.656064
2018-08-18T02:19:01.690Z,9.656064
2018-08-18T02:19:14.108Z,6.437376
2018-08-18T02:19:26.558Z,6.437376
2018-08-18T02:19:38.976Z,6.437376
2018-08-18T02:19:51.529Z,6.437376
2018-08-18T02:20:05.189Z,3.218688
2018-08-18T02:20:18.354Z,3.218688
2018-08-18T02:20:30.799Z,4.828032
2018-08-18T02:20:43.294Z,4.828032
2018-08-18T02:20:55.723Z,4.828032
2018-08-18T02:21:08.137Z,3.218688
2018-08-18T02:21:20.550Z,4.828032
2018-08-18T02:21:32.968Z,6.437376
2018-08-18T02:21:45.387Z,6.437376
2018-08-18T02:21:57.799Z,6.437376
2018-08-18T02:22:10.226Z,6.437376
2018-08-18T02:22:22.834Z,6.437376
2018-08-18T02:22:35.257Z,6.437376
2018-08-18T02:22:47.669Z,6.437376
2018-08-18T02:23:00.117Z,6.437376
2018-08-18T02:23:12.534Z,3.218688
2018-08-18T02:23:24.967Z,8.04672
2018-08-18T02:23:37.376Z,8.04672
2018-08-18T02:23:49.772Z,8.04672
2018-08-18T02:24:02.186Z,8.04672
2018-08-18T02:24:14.598Z,6.437376
2018-08-18T02:24:26.996Z,8.04672
2018-08-18T02:24:39.404Z,8.04672
2018-08-18T02:24:51.901Z,8.04672
2018-08-18T02:25:04.591Z,1.609344
2018-08-18T02:25:17.015Z,1.609344
2018-08-18T02:25:29.425Z,1.609344
2018-08-18T02:25:41.853Z,1.609344
2018-08-18T02:25:54.269Z,1.609344
2018-08-18T02:26:06.687Z,1.609344
2018-08-18T02:26:19.177Z,3.218688
2018-08-18T02:26:31.591Z,3.218688
2018-08-18T02:26:44.156Z,6.437376
2018-08-18T02:26:56.563Z,6.437376
2018-08-18T02:27:08.971Z,6.437376
2018-08-18T02:27:21.519Z,6.437376
2018-08-18T02:27:33.947Z,6.437376